createdAt,value
2022-10-23T00:12:39.283Z,20.90
2022-10-23T00:27:43.995Z,20.80
2022-10-23T00:42:48.666Z,20.80
2022-10-23T00:57:53.665Z,20.80
2022-10-23T01:13:05.276Z,20.80
2022-10-23T01:28:14.847Z,20.80
2022-10-23T01:43:24.514Z,20.70
2022-10-23T01:58:30.733Z,20.70
2022-10-23T02:13:40.549Z,20.70
2022-10-23T02:28:55.126Z,20.70
2022-10-23T02:44:18.149Z,20.60
2022-10-23T02:59:33.102Z,20.70
2022-10-23T03:14:38.872Z,20.60
2022-10-23T03:29:43.345Z,20.70
2022-10-23T03:44:47.706Z,20.60
2022-10-23T03:59:52.595Z,20.50
2022-10-23T04:14:57.555Z,20.60
2022-10-23T04:30:03.615Z,20.50
2022-10-23T04:45:09.063Z,20.40
2022-10-23T05:00:16.174Z,20.40
2022-10-23T05:15:28.536Z,20.20
2022-10-23T05:30:33.977Z,20.40
2022-10-23T05:45:39.628Z,20.30
2022-10-23T06:01:23.126Z,20.30
2022-10-23T06:16:40.992Z,20.40
2022-10-23T06:31:45.998Z,20.40
2022-10-23T06:46:51.485Z,20.20
2022-10-23T07:02:14.433Z,20.30
2022-10-23T07:17:19.644Z,20.30
2022-10-23T07:32:25.672Z,20.30
2022-10-23T07:47:53.167Z,20.30
2022-10-23T08:03:01.174Z,20.40
2022-10-23T08:18:06.004Z,20.40
2022-10-23T08:33:18.261Z,20.50
2022-10-23T08:48:27.143Z,20.60
2022-10-23T09:03:57.966Z,20.70
2022-10-23T09:19:03.133Z,21.00
2022-10-23T09:34:10.980Z,21.10
2022-10-23T09:49:24.660Z,21.20
2022-10-23T10:04:39.921Z,21.50
2022-10-23T10:20:05.438Z,21.70
2022-10-23T10:35:23.265Z,21.90
2022-10-23T10:50:34.732Z,22.00
2022-10-23T11:21:25.821Z,22.70
2022-10-23T11:36:44.721Z,22.70
2022-10-23T11:51:59.878Z,22.60
2022-10-23T12:07:15.928Z,23.00
2022-10-23T12:22:22.197Z,23.20
2022-10-23T12:37:55.880Z,23.30
2022-10-23T12:53:01.636Z,23.60
2022-10-23T13:08:07.778Z,23.60
2022-10-23T13:23:29.946Z,23.40
2022-10-23T13:38:36.159Z,23.20
2022-10-23T13:53:40.622Z,23.20
2022-10-23T14:08:45.471Z,23.40
2022-10-23T14:23:50.689Z,23.50
2022-10-23T14:38:58.125Z,25.30
2022-10-23T14:54:04.060Z,26.20
2022-10-23T15:09:08.439Z,25.70
2022-10-23T15:24:12.820Z,25.10
2022-10-23T15:39:19.509Z,24.20
2022-10-23T15:54:26.031Z,24.00
2022-10-23T16:09:32.801Z,23.80
2022-10-23T16:24:37.284Z,23.50
2022-10-23T16:39:41.692Z,23.20
2022-10-23T16:55:12.005Z,23.00
2022-10-23T17:10:16.392Z,22.70
2022-10-23T17:25:20.864Z,22.50
2022-10-23T17:40:27.265Z,22.50
2022-10-23T17:55:31.637Z,22.40
2022-10-23T18:10:38.236Z,22.30
2022-10-23T18:25:45.871Z,22.20
2022-10-23T18:40:55.064Z,22.20
2022-10-23T18:56:00.661Z,22.00
2022-10-23T19:11:06.453Z,21.90
2022-10-23T19:26:13.571Z,21.90
2022-10-23T19:41:18.764Z,21.90
2022-10-23T19:56:23.392Z,21.80
2022-10-23T20:11:31.507Z,21.80
2022-10-23T20:26:36.018Z,21.70
2022-10-23T20:41:41.748Z,21.60
2022-10-23T20:56:46.395Z,21.20
2022-10-23T21:11:51.487Z,21.30
2022-10-23T21:26:55.783Z,21.00
2022-10-23T21:42:00.113Z,20.80
2022-10-23T21:57:04.673Z,20.70
2022-10-23T22:12:11.415Z,20.80
2022-10-23T22:27:15.768Z,20.70
2022-10-23T22:42:20.534Z,20.70
2022-10-23T23:12:36.950Z,20.30
2022-10-23T23:27:41.365Z,20.30
2022-10-23T23:42:46.895Z,20.10
2022-10-23T23:57:51.453Z,20.30
